sensor_id;sensor_type;location;lat;lon;timestamp;temperature;humidity
5930;DHT22;2990;48.746;9.236;2023-02-13T00:02:12;2.90;83.00
5930;DHT22;2990;48.746;9.236;2023-02-13T00:04:38;2.90;69.50
5930;DHT22;2990;48.746;9.236;2023-02-13T00:07:04;2.90;78.10
5930;DHT22;2990;48.746;9.236;2023-02-13T00:09:29;2.90;69.00
5930;DHT22;2990;48.746;9.236;2023-02-13T00:11:55;2.80;71.40
5930;DHT22;2990;48.746;9.236;2023-02-13T00:14:21;2.80;70.30
5930;DHT22;2990;48.746;9.236;2023-02-13T00:16:46;2.80;76.30
5930;DHT22;2990;48.746;9.236;2023-02-13T00:19:12;2.80;76.50
5930;DHT22;2990;48.746;9.236;2023-02-13T00:21:37;2.70;67.60
5930;DHT22;2990;48.746;9.236;2023-02-13T00:24:03;2.70;64.80
5930;DHT22;2990;48.746;9.236;2023-02-13T00:26:28;2.60;78.00
5930;DHT22;2990;48.746;9.236;2023-02-13T00:28:55;2.60;93.90
5930;DHT22;2990;48.746;9.236;2023-02-13T00:31:21;2.60;99.20
5930;DHT22;2990;48.746;9.236;2023-02-13T00:33:48;2.50;99.90
5930;DHT22;2990;48.746;9.236;2023-02-13T00:36:16;2.50;99.90
5930;DHT22;2990;48.746;9.236;2023-02-13T00:38:42;2.50;99.90
5930;DHT22;2990;48.746;9.236;2023-02-13T00:41:09;2.40;99.90
5930;DHT22;2990;48.746;9.236;2023-02-13T00:43:35;2.40;99.90
5930;DHT22;2990;48.746;9.236;2023-02-13T00:46:01;2.40;99.90
5930;DHT22;2990;48.746;9.236;2023-02-13T00:48:29;2.40;99.90
5930;DHT22;2990;48.746;9.236;2023-02-13T00:50:55;2.40;99.90
5930;DHT22;2990;48.746;9.236;2023-02-13T00:53:21;2.30;99.90
5930;DHT22;2990;48.746;9.236;2023-02-13T00:55:47;2.30;99.90
5930;DHT22;2990;48.746;9.236;2023-02-13T00:58:14;2.30;99.90
5930;DHT22;2990;48.746;9.236;2023-02-13T01:00:40;2.20;99.90
5930;DHT22;2990;48.746;9.236;2023-02-13T01:03:06;2.20;99.90
5930;DHT22;2990;48.746;9.236;2023-02-13T01:05:32;2.10;99.90
5930;DHT22;2990;48.746;9.236;2023-02-13T01:07:58;2.10;99.90
5930;DHT22;2990;48.746;9.236;2023-02-13T01:10:24;2.00;99.90
5930;DHT22;2990;48.746;9.236;2023-02-13T01:12:49;2.10;99.90
5930;DHT22;2990;48.746;9.236;2023-02-13T01:15:15;2.00;99.90
5930;DHT22;2990;48.746;9.236;2023-02-13T01:17:41;1.90;99.90
5930;DHT22;2990;48.746;9.236;2023-02-13T01:20:08;1.90;99.90
5930;DHT22;2990;48.746;9.236;2023-02-13T01:22:34;1.90;99.90
5930;DHT22;2990;48.746;9.236;2023-02-13T01:24:59;1.90;99.90
5930;DHT22;2990;48.746;9.236;2023-02-13T01:27:27;1.90;99.90
5930;DHT22;2990;48.746;9.236;2023-02-13T01:29:53;1.90;99.90
5930;DHT22;2990;48.746;9.236;2023-02-13T01:32:18;2.00;99.90
5930;DHT22;2990;48.746;9.236;2023-02-13T01:34:44;1.90;99.90
5930;DHT22;2990;48.746;9.236;2023-02-13T01:37:10;1.90;99.90
5930;DHT22;2990;48.746;9.236;2023-02-13T01:39:35;1.90;99.90
5930;DHT22;2990;48.746;9.236;2023-02-13T01:42:01;1.90;99.90
5930;DHT22;2990;48.746;9.236;2023-02-13T01:44:47;1.90;99.90
5930;DHT22;2990;48.746;9.236;2023-02-13T01:47:15;2.00;99.90
5930;DHT22;2990;48.746;9.236;2023-02-13T01:49:44;1.90;99.90
5930;DHT22;2990;48.746;9.236;2023-02-13T01:52:11;2.00;99.90
5930;DHT22;2990;48.746;9.236;2023-02-13T01:54:37;2.00;99.90
5930;DHT22;2990;48.746;9.236;2023-02-13T01:57:16;2.00;99.90
5930;DHT22;2990;48.746;9.236;2023-02-13T01:59:48;2.00;99.90
5930;DHT22;2990;48.746;9.236;2023-02-13T02:02:14;1.90;99.90
5930;DHT22;2990;48.746;9.236;2023-02-13T02:04:42;1.90;99.90
5930;DHT22;2990;48.746;9.236;2023-02-13T02:07:16;1.80;99.90
5930;DHT22;2990;48.746;9.236;2023-02-13T02:09:44;1.80;99.90
5930;DHT22;2990;48.746;9.236;2023-02-13T02:12:26;1.70;99.90
5930;DHT22;2990;48.746;9.236;2023-02-13T02:14:55;1.70;99.90
5930;DHT22;2990;48.746;9.236;2023-02-13T02:17:24;1.60;99.90
5930;DHT22;2990;48.746;9.236;2023-02-13T02:38:07;1.30;99.90
5930;DHT22;2990;48.746;9.236;2023-02-13T02:43:54;1.40;99.90
5930;DHT22;2990;48.746;9.236;2023-02-13T02:46:33;1.40;99.90
5930;DHT22;2990;48.746;9.236;2023-02-13T02:49:10;1.40;99.90
5930;DHT22;2990;48.746;9.236;2023-02-13T02:52:11;1.30;99.90
5930;DHT22;2990;48.746;9.236;2023-02-13T02:54:48;1.30;99.90
5930;DHT22;2990;48.746;9.236;2023-02-13T02:57:39;1.20;99.90
5930;DHT22;2990;48.746;9.236;2023-02-13T03:00:25;1.20;99.90
5930;DHT22;2990;48.746;9.236;2023-02-13T03:03:24;1.30;99.90
5930;DHT22;2990;48.746;9.236;2023-02-13T03:06:38;1.30;99.90
5930;DHT22;2990;48.746;9.236;2023-02-13T03:09:19;1.40;99.90
5930;DHT22;2990;48.746;9.236;2023-02-13T03:12:05;1.30;99.90
5930;DHT22;2990;48.746;9.236;2023-02-13T03:14:51;1.30;99.90
5930;DHT22;2990;48.746;9.236;2023-02-13T03:17:17;1.30;99.90
5930;DHT22;2990;48.746;9.236;2023-02-13T03:23:42;1.20;99.90
5930;DHT22;2990;48.746;9.236;2023-02-13T03:26:31;1.20;99.90
5930;DHT22;2990;48.746;9.236;2023-02-13T03:29:38;1.10;99.90
5930;DHT22;2990;48.746;9.236;2023-02-13T03:35:21;0.80;99.90
5930;DHT22;2990;48.746;9.236;2023-02-13T03:38:24;1.00;99.90
5930;DHT22;2990;48.746;9.236;2023-02-13T03:41:23;1.00;99.90
5930;DHT22;2990;48.746;9.236;2023-02-13T03:44:16;1.00;99.90
5930;DHT22;2990;48.746;9.236;2023-02-13T03:46:45;1.00;99.90
5930;DHT22;2990;48.746;9.236;2023-02-13T03:49:27;1.20;99.90
5930;DHT22;2990;48.746;9.236;2023-02-13T03:52:18;1.10;99.90
5930;DHT22;2990;48.746;9.236;2023-02-13T03:54:59;1.20;99.90
5930;DHT22;2990;48.746;9.236;2023-02-13T03:57:45;1.10;99.90
5930;DHT22;2990;48.746;9.236;2023-02-13T04:00:35;1.10;99.90
5930;DHT22;2990;48.746;9.236;2023-02-13T04:03:32;1.10;99.90
5930;DHT22;2990;48.746;9.236;2023-02-13T04:06:13;1.10;99.90
5930;DHT22;2990;48.746;9.236;2023-02-13T04:08:40;1.10;99.90
5930;DHT22;2990;48.746;9.236;2023-02-13T04:11:31;1.10;99.90
5930;DHT22;2990;48.746;9.236;2023-02-13T04:14:00;1.10;99.90
5930;DHT22;2990;48.746;9.236;2023-02-13T04:16:48;1.10;99.90
5930;DHT22;2990;48.746;9.236;2023-02-13T04:19:15;1.10;99.90
5930;DHT22;2990;48.746;9.236;2023-02-13T04:21:41;1.10;99.90
5930;DHT22;2990;48.746;9.236;2023-02-13T04:24:08;1.10;99.90
5930;DHT22;2990;48.746;9.236;2023-02-13T04:26:42;1.10;99.90
5930;DHT22;2990;48.746;9.236;2023-02-13T04:29:08;1.00;99.90
5930;DHT22;2990;48.746;9.236;2023-02-13T04:31:33;1.00;99.90
5930;DHT22;2990;48.746;9.236;2023-02-13T04:33:59;1.10;99.90
5930;DHT22;2990;48.746;9.236;2023-02-13T04:36:25;1.00;99.90
5930;DHT22;2990;48.746;9.236;2023-02-13T04:38:51;0.90;99.90
5930;DHT22;2990;48.746;9.236;2023-02-13T04:41:16;0.90;99.90
5930;DHT22;2990;48.746;9.236;2023-02-13T04:43:42;0.90;99.90
5930;DHT22;2990;48.746;9.236;2023-02-13T04:46:08;0.90;99.90
5930;DHT22;2990;48.746;9.236;2023-02-13T04:48:33;0.90;99.90
5930;DHT22;2990;48.746;9.236;2023-02-13T04:50:59;0.80;99.90
5930;DHT22;2990;48.746;9.236;2023-02-13T04:53:24;0.90;99.90
5930;DHT22;2990;48.746;9.236;2023-02-13T04:55:51;0.90;99.90
5930;DHT22;2990;48.746;9.236;2023-02-13T04:58:17;0.80;99.90
5930;DHT22;2990;48.746;9.236;2023-02-13T05:00:43;0.80;99.90
5930;DHT22;2990;48.746;9.236;2023-02-13T05:03:11;0.80;99.90
5930;DHT22;2990;48.746;9.236;2023-02-13T05:05:37;0.80;99.90
5930;DHT22;2990;48.746;9.236;2023-02-13T05:08:03;0.80;99.90
5930;DHT22;2990;48.746;9.236;2023-02-13T05:10:30;0.80;99.90
5930;DHT22;2990;48.746;9.236;2023-02-13T05:12:56;0.80;99.90
5930;DHT22;2990;48.746;9.236;2023-02-13T05:15:21;0.80;99.90
5930;DHT22;2990;48.746;9.236;2023-02-13T05:17:50;0.80;99.90
5930;DHT22;2990;48.746;9.236;2023-02-13T05:20:16;0.70;99.90
5930;DHT22;2990;48.746;9.236;2023-02-13T05:22:47;0.80;99.90
5930;DHT22;2990;48.746;9.236;2023-02-13T05:25:32;0.80;99.90
5930;DHT22;2990;48.746;9.236;2023-02-13T05:27:58;0.80;99.90
5930;DHT22;2990;48.746;9.236;2023-02-13T05:30:23;0.80;99.90
5930;DHT22;2990;48.746;9.236;2023-02-13T05:32:49;0.70;99.90
5930;DHT22;2990;48.746;9.236;2023-02-13T05:35:17;0.70;99.90
5930;DHT22;2990;48.746;9.236;2023-02-13T05:37:43;0.90;99.90
5930;DHT22;2990;48.746;9.236;2023-02-13T05:40:10;0.70;99.90
5930;DHT22;2990;48.746;9.236;2023-02-13T05:42:36;0.70;99.90
5930;DHT22;2990;48.746;9.236;2023-02-13T05:45:01;0.70;99.90
5930;DHT22;2990;48.746;9.236;2023-02-13T05:47:27;0.70;99.90
5930;DHT22;2990;48.746;9.236;2023-02-13T05:49:53;0.70;99.90
5930;DHT22;2990;48.746;9.236;2023-02-13T05:52:18;0.60;99.90
5930;DHT22;2990;48.746;9.236;2023-02-13T05:54:44;0.80;99.90
5930;DHT22;2990;48.746;9.236;2023-02-13T05:57:10;0.80;99.90
5930;DHT22;2990;48.746;9.236;2023-02-13T05:59:35;0.80;99.90
5930;DHT22;2990;48.746;9.236;2023-02-13T06:02:01;0.60;99.90
5930;DHT22;2990;48.746;9.236;2023-02-13T06:04:26;0.60;99.90
5930;DHT22;2990;48.746;9.236;2023-02-13T06:06:52;0.60;99.90
5930;DHT22;2990;48.746;9.236;2023-02-13T06:09:18;0.60;99.90
5930;DHT22;2990;48.746;9.236;2023-02-13T06:11:43;0.60;99.90
5930;DHT22;2990;48.746;9.236;2023-02-13T06:14:10;0.60;99.90
5930;DHT22;2990;48.746;9.236;2023-02-13T06:16:35;0.60;99.90
5930;DHT22;2990;48.746;9.236;2023-02-13T06:19:01;0.60;99.90
5930;DHT22;2990;48.746;9.236;2023-02-13T06:21:27;0.70;99.90
5930;DHT22;2990;48.746;9.236;2023-02-13T06:23:53;0.60;99.90
5930;DHT22;2990;48.746;9.236;2023-02-13T06:26:18;0.60;99.90
5930;DHT22;2990;48.746;9.236;2023-02-13T06:28:44;0.60;99.90
5930;DHT22;2990;48.746;9.236;2023-02-13T06:31:09;0.60;99.90
5930;DHT22;2990;48.746;9.236;2023-02-13T06:33:35;0.60;99.90
5930;DHT22;2990;48.746;9.236;2023-02-13T06:36:01;0.70;99.90
5930;DHT22;2990;48.746;9.236;2023-02-13T06:38:29;0.60;99.90
5930;DHT22;2990;48.746;9.236;2023-02-13T06:41:00;0.60;99.90
5930;DHT22;2990;48.746;9.236;2023-02-13T06:43:26;0.60;99.90
5930;DHT22;2990;48.746;9.236;2023-02-13T06:45:52;0.60;99.90
5930;DHT22;2990;48.746;9.236;2023-02-13T06:48:18;0.50;99.90
5930;DHT22;2990;48.746;9.236;2023-02-13T06:50:44;0.50;99.90
5930;DHT22;2990;48.746;9.236;2023-02-13T06:53:10;0.50;99.90
5930;DHT22;2990;48.746;9.236;2023-02-13T06:55:36;0.70;99.90
5930;DHT22;2990;48.746;9.236;2023-02-13T06:58:03;0.50;99.90
5930;DHT22;2990;48.746;9.236;2023-02-13T07:00:29;0.60;99.90
5930;DHT22;2990;48.746;9.236;2023-02-13T07:03:02;0.50;99.90
5930;DHT22;2990;48.746;9.236;2023-02-13T07:05:28;0.50;99.90
5930;DHT22;2990;48.746;9.236;2023-02-13T07:07:54;0.60;99.90
5930;DHT22;2990;48.746;9.236;2023-02-13T07:10:20;0.60;99.90
5930;DHT22;2990;48.746;9.236;2023-02-13T07:12:45;0.60;99.90
5930;DHT22;2990;48.746;9.236;2023-02-13T07:15:11;0.60;99.90
5930;DHT22;2990;48.746;9.236;2023-02-13T07:17:37;0.70;99.90
5930;DHT22;2990;48.746;9.236;2023-02-13T07:20:04;0.60;99.90
5930;DHT22;2990;48.746;9.236;2023-02-13T07:22:33;0.70;99.90
5930;DHT22;2990;48.746;9.236;2023-02-13T07:24:59;0.70;99.90
5930;DHT22;2990;48.746;9.236;2023-02-13T07:27:26;0.70;99.90
5930;DHT22;2990;48.746;9.236;2023-02-13T07:29:54;0.70;99.90
5930;DHT22;2990;48.746;9.236;2023-02-13T07:32:20;0.90;99.90
5930;DHT22;2990;48.746;9.236;2023-02-13T07:34:46;0.80;99.90
5930;DHT22;2990;48.746;9.236;2023-02-13T07:37:11;0.80;99.90
5930;DHT22;2990;48.746;9.236;2023-02-13T07:39:37;0.80;99.90
5930;DHT22;2990;48.746;9.236;2023-02-13T07:42:04;0.80;99.90
5930;DHT22;2990;48.746;9.236;2023-02-13T07:44:30;0.90;99.90
5930;DHT22;2990;48.746;9.236;2023-02-13T07:46:56;0.90;99.90
5930;DHT22;2990;48.746;9.236;2023-02-13T07:49:21;1.00;99.90
5930;DHT22;2990;48.746;9.236;2023-02-13T07:51:47;1.00;99.90
5930;DHT22;2990;48.746;9.236;2023-02-13T07:54:13;1.10;99.90
5930;DHT22;2990;48.746;9.236;2023-02-13T07:56:38;1.40;99.90
5930;DHT22;2990;48.746;9.236;2023-02-13T07:59:04;1.30;99.90
5930;DHT22;2990;48.746;9.236;2023-02-13T08:01:29;1.20;99.90
5930;DHT22;2990;48.746;9.236;2023-02-13T08:03:55;1.30;99.90
5930;DHT22;2990;48.746;9.236;2023-02-13T08:06:20;1.40;99.90
5930;DHT22;2990;48.746;9.236;2023-02-13T08:08:46;1.40;99.90
5930;DHT22;2990;48.746;9.236;2023-02-13T08:11:38;1.50;99.90
5930;DHT22;2990;48.746;9.236;2023-02-13T08:14:24;1.60;99.90
5930;DHT22;2990;48.746;9.236;2023-02-13T08:16:50;1.70;99.90
5930;DHT22;2990;48.746;9.236;2023-02-13T08:19:16;1.80;99.90
5930;DHT22;2990;48.746;9.236;2023-02-13T08:21:42;1.90;99.90
5930;DHT22;2990;48.746;9.236;2023-02-13T08:24:08;1.90;99.90
5930;DHT22;2990;48.746;9.236;2023-02-13T08:26:34;2.00;99.90
5930;DHT22;2990;48.746;9.236;2023-02-13T08:29:00;2.00;99.90
5930;DHT22;2990;48.746;9.236;2023-02-13T08:31:26;2.30;99.90
5930;DHT22;2990;48.746;9.236;2023-02-13T08:33:52;2.10;1.00
5930;DHT22;2990;48.746;9.236;2023-02-13T08:36:18;2.20;1.00
5930;DHT22;2990;48.746;9.236;2023-02-13T08:38:46;2.30;1.00
5930;DHT22;2990;48.746;9.236;2023-02-13T08:41:12;2.40;1.00
5930;DHT22;2990;48.746;9.236;2023-02-13T08:43:38;2.50;1.00
5930;DHT22;2990;48.746;9.236;2023-02-13T08:46:04;2.60;1.00
5930;DHT22;2990;48.746;9.236;2023-02-13T08:48:29;2.70;1.00
5930;DHT22;2990;48.746;9.236;2023-02-13T08:50:56;2.70;99.90
5930;DHT22;2990;48.746;9.236;2023-02-13T08:53:21;3.00;1.00
5930;DHT22;2990;48.746;9.236;2023-02-13T08:55:54;3.20;99.90
5930;DHT22;2990;48.746;9.236;2023-02-13T08:58:20;3.40;1.00
5930;DHT22;2990;48.746;9.236;2023-02-13T09:00:47;3.70;25.10
5930;DHT22;2990;48.746;9.236;2023-02-13T09:03:13;3.90;99.90
5930;DHT22;2990;48.746;9.236;2023-02-13T09:05:38;4.00;99.90
5930;DHT22;2990;48.746;9.236;2023-02-13T09:08:04;4.30;1.00
5930;DHT22;2990;48.746;9.236;2023-02-13T09:10:31;4.60;85.10
5930;DHT22;2990;48.746;9.236;2023-02-13T09:12:57;4.80;1.00
5930;DHT22;2990;48.746;9.236;2023-02-13T09:15:23;5.00;1.00
5930;DHT22;2990;48.746;9.236;2023-02-13T09:17:49;5.10;99.90
5930;DHT22;2990;48.746;9.236;2023-02-13T09:20:14;5.40;99.90
5930;DHT22;2990;48.746;9.236;2023-02-13T09:22:41;5.30;99.90
5930;DHT22;2990;48.746;9.236;2023-02-13T09:25:07;5.30;99.90
5930;DHT22;2990;48.746;9.236;2023-02-13T09:27:33;5.30;1.00
5930;DHT22;2990;48.746;9.236;2023-02-13T09:30:00;5.50;1.00
5930;DHT22;2990;48.746;9.236;2023-02-13T09:32:26;5.60;1.00
5930;DHT22;2990;48.746;9.236;2023-02-13T09:34:52;5.80;1.00
5930;DHT22;2990;48.746;9.236;2023-02-13T09:37:18;6.10;1.00
5930;DHT22;2990;48.746;9.236;2023-02-13T09:39:43;6.20;1.00
5930;DHT22;2990;48.746;9.236;2023-02-13T09:42:25;6.40;1.00
5930;DHT22;2990;48.746;9.236;2023-02-13T09:44:54;6.40;1.00
5930;DHT22;2990;48.746;9.236;2023-02-13T09:49:57;6.70;1.00
5930;DHT22;2990;48.746;9.236;2023-02-13T09:52:28;6.80;1.00
5930;DHT22;2990;48.746;9.236;2023-02-13T09:54:56;6.90;99.90
5930;DHT22;2990;48.746;9.236;2023-02-13T09:57:30;6.90;99.90
5930;DHT22;2990;48.746;9.236;2023-02-13T10:00:09;7.00;99.90
5930;DHT22;2990;48.746;9.236;2023-02-13T10:12:04;7.50;99.90
5930;DHT22;2990;48.746;9.236;2023-02-13T10:14:29;7.50;99.90
5930;DHT22;2990;48.746;9.236;2023-02-13T10:17:10;7.60;99.90
5930;DHT22;2990;48.746;9.236;2023-02-13T10:19:41;7.60;99.90
5930;DHT22;2990;48.746;9.236;2023-02-13T10:24:55;8.00;99.90
5930;DHT22;2990;48.746;9.236;2023-02-13T10:27:24;8.10;99.90
5930;DHT22;2990;48.746;9.236;2023-02-13T10:29:57;8.30;99.90
5930;DHT22;2990;48.746;9.236;2023-02-13T10:35:19;8.20;99.90
5930;DHT22;2990;48.746;9.236;2023-02-13T10:37:46;8.30;99.90
5930;DHT22;2990;48.746;9.236;2023-02-13T10:40:16;8.40;99.90
5930;DHT22;2990;48.746;9.236;2023-02-13T10:42:52;8.60;99.90
5930;DHT22;2990;48.746;9.236;2023-02-13T10:51:29;8.60;99.90
5930;DHT22;2990;48.746;9.236;2023-02-13T10:54:21;8.60;99.90
5930;DHT22;2990;48.746;9.236;2023-02-13T10:59:49;8.70;99.90
5930;DHT22;2990;48.746;9.236;2023-02-13T11:02:27;8.60;99.90
5930;DHT22;2990;48.746;9.236;2023-02-13T11:05:32;8.50;99.90
5930;DHT22;2990;48.746;9.236;2023-02-13T11:08:00;8.50;99.90
5930;DHT22;2990;48.746;9.236;2023-02-13T11:10:27;8.60;99.90
5930;DHT22;2990;48.746;9.236;2023-02-13T11:12:55;8.70;99.90
5930;DHT22;2990;48.746;9.236;2023-02-13T11:15:27;8.90;99.90
5930;DHT22;2990;48.746;9.236;2023-02-13T11:17:59;9.00;99.90
5930;DHT22;2990;48.746;9.236;2023-02-13T11:20:37;9.10;99.90
5930;DHT22;2990;48.746;9.236;2023-02-13T11:26:05;9.20;99.90
5930;DHT22;2990;48.746;9.236;2023-02-13T11:28:45;9.30;99.90
5930;DHT22;2990;48.746;9.236;2023-02-13T11:31:13;9.30;99.90
5930;DHT22;2990;48.746;9.236;2023-02-13T11:33:40;9.30;99.90
5930;DHT22;2990;48.746;9.236;2023-02-13T11:36:08;9.40;99.90
5930;DHT22;2990;48.746;9.236;2023-02-13T11:38:34;9.50;99.90
5930;DHT22;2990;48.746;9.236;2023-02-13T11:41:09;9.60;99.90
5930;DHT22;2990;48.746;9.236;2023-02-13T11:43:49;9.60;99.90
5930;DHT22;2990;48.746;9.236;2023-02-13T11:46:23;9.50;99.90
5930;DHT22;2990;48.746;9.236;2023-02-13T11:49:00;9.50;99.90
5930;DHT22;2990;48.746;9.236;2023-02-13T11:51:39;9.40;99.90
5930;DHT22;2990;48.746;9.236;2023-02-13T11:54:06;9.50;99.90
5930;DHT22;2990;48.746;9.236;2023-02-13T11:56:49;9.40;99.90
5930;DHT22;2990;48.746;9.236;2023-02-13T11:59:15;9.40;99.90
5930;DHT22;2990;48.746;9.236;2023-02-13T12:01:41;9.20;99.90
5930;DHT22;2990;48.746;9.236;2023-02-13T12:04:16;9.10;99.90
5930;DHT22;2990;48.746;9.236;2023-02-13T12:07:03;9.40;99.90
5930;DHT22;2990;48.746;9.236;2023-02-13T12:09:37;9.40;99.90
5930;DHT22;2990;48.746;9.236;2023-02-13T12:12:04;9.30;99.90
5930;DHT22;2990;48.746;9.236;2023-02-13T12:14:37;9.40;99.90
5930;DHT22;2990;48.746;9.236;2023-02-13T12:17:06;9.50;99.90
5930;DHT22;2990;48.746;9.236;2023-02-13T12:19:41;9.60;99.90
5930;DHT22;2990;48.746;9.236;2023-02-13T12:22:10;9.40;99.90
5930;DHT22;2990;48.746;9.236;2023-02-13T12:24:48;9.40;99.90
5930;DHT22;2990;48.746;9.236;2023-02-13T12:27:21;9.50;99.90
5930;DHT22;2990;48.746;9.236;2023-02-13T12:31:14;9.50;99.90
5930;DHT22;2990;48.746;9.236;2023-02-13T12:35:56;9.20;99.90
5930;DHT22;2990;48.746;9.236;2023-02-13T12:41:22;9.20;99.90
5930;DHT22;2990;48.746;9.236;2023-02-13T12:44:27;9.30;99.90
5930;DHT22;2990;48.746;9.236;2023-02-13T12:47:01;8.90;99.90
5930;DHT22;2990;48.746;9.236;2023-02-13T12:58:11;9.10;99.90
5930;DHT22;2990;48.746;9.236;2023-02-13T13:09:11;9.60;99.90
5930;DHT22;2990;48.746;9.236;2023-02-13T13:11:50;9.60;99.90
5930;DHT22;2990;48.746;9.236;2023-02-13T13:14:37;9.70;99.90
5930;DHT22;2990;48.746;9.236;2023-02-13T13:20:30;10.00;99.90
5930;DHT22;2990;48.746;9.236;2023-02-13T13:22:52;10.00;99.90
5930;DHT22;2990;48.746;9.236;2023-02-13T13:25:30;10.10;99.90
5930;DHT22;2990;48.746;9.236;2023-02-13T13:28:02;10.10;99.90
5930;DHT22;2990;48.746;9.236;2023-02-13T13:30:33;10.10;99.90
5930;DHT22;2990;48.746;9.236;2023-02-13T13:33:08;10.10;99.90
5930;DHT22;2990;48.746;9.236;2023-02-13T13:35:37;10.10;99.90
5930;DHT22;2990;48.746;9.236;2023-02-13T13:38:11;10.20;99.90
5930;DHT22;2990;48.746;9.236;2023-02-13T13:43:57;10.20;99.90
5930;DHT22;2990;48.746;9.236;2023-02-13T13:49:48;10.20;99.90
5930;DHT22;2990;48.746;9.236;2023-02-13T13:54:50;10.10;99.90
5930;DHT22;2990;48.746;9.236;2023-02-13T13:57:20;10.10;99.90
5930;DHT22;2990;48.746;9.236;2023-02-13T14:05:21;10.10;99.90
5930;DHT22;2990;48.746;9.236;2023-02-13T14:07:55;10.10;99.90
5930;DHT22;2990;48.746;9.236;2023-02-13T14:28:41;9.90;99.90
5930;DHT22;2990;48.746;9.236;2023-02-13T14:31:32;9.90;99.90
5930;DHT22;2990;48.746;9.236;2023-02-13T14:34:08;9.90;99.90
5930;DHT22;2990;48.746;9.236;2023-02-13T14:39:36;9.70;99.90
5930;DHT22;2990;48.746;9.236;2023-02-13T14:42:04;9.60;99.90
5930;DHT22;2990;48.746;9.236;2023-02-13T14:44:48;9.40;99.90
5930;DHT22;2990;48.746;9.236;2023-02-13T14:47:29;9.30;99.90
5930;DHT22;2990;48.746;9.236;2023-02-13T14:49:57;9.30;99.90
5930;DHT22;2990;48.746;9.236;2023-02-13T14:52:28;9.30;99.90
5930;DHT22;2990;48.746;9.236;2023-02-13T14:55:03;9.20;99.90
5930;DHT22;2990;48.746;9.236;2023-02-13T14:57:39;9.20;99.90
5930;DHT22;2990;48.746;9.236;2023-02-13T15:03:07;9.10;99.90
5930;DHT22;2990;48.746;9.236;2023-02-13T15:05:36;9.10;99.90
5930;DHT22;2990;48.746;9.236;2023-02-13T15:10:40;9.00;99.90
5930;DHT22;2990;48.746;9.236;2023-02-13T15:13:17;8.90;99.90
5930;DHT22;2990;48.746;9.236;2023-02-13T15:15:49;8.80;99.90
5930;DHT22;2990;48.746;9.236;2023-02-13T15:18:21;8.80;99.90
5930;DHT22;2990;48.746;9.236;2023-02-13T15:20:47;8.70;99.90
5930;DHT22;2990;48.746;9.236;2023-02-13T15:23:22;8.60;99.90
5930;DHT22;2990;48.746;9.236;2023-02-13T15:25:58;8.50;99.90
5930;DHT22;2990;48.746;9.236;2023-02-13T15:28:25;8.50;99.90
5930;DHT22;2990;48.746;9.236;2023-02-13T15:31:05;8.40;99.90
5930;DHT22;2990;48.746;9.236;2023-02-13T15:33:48;8.30;99.90
5930;DHT22;2990;48.746;9.236;2023-02-13T15:36:20;8.20;99.90
5930;DHT22;2990;48.746;9.236;2023-02-13T15:38:46;8.10;99.90
5930;DHT22;2990;48.746;9.236;2023-02-13T15:41:21;8.10;99.90
5930;DHT22;2990;48.746;9.236;2023-02-13T15:43:56;7.80;99.90
5930;DHT22;2990;48.746;9.236;2023-02-13T15:46:29;7.70;99.90
5930;DHT22;2990;48.746;9.236;2023-02-13T15:48:57;7.60;99.90
5930;DHT22;2990;48.746;9.236;2023-02-13T15:51:26;7.40;99.90
5930;DHT22;2990;48.746;9.236;2023-02-13T15:54:04;7.30;99.90
5930;DHT22;2990;48.746;9.236;2023-02-13T15:56:31;7.20;99.90
5930;DHT22;2990;48.746;9.236;2023-02-13T15:58:58;7.00;99.90
5930;DHT22;2990;48.746;9.236;2023-02-13T16:01:24;6.90;99.90
5930;DHT22;2990;48.746;9.236;2023-02-13T16:03:55;6.80;99.90
5930;DHT22;2990;48.746;9.236;2023-02-13T16:06:24;6.70;99.90
5930;DHT22;2990;48.746;9.236;2023-02-13T16:08:57;6.60;99.90
5930;DHT22;2990;48.746;9.236;2023-02-13T16:14:09;6.30;99.90
5930;DHT22;2990;48.746;9.236;2023-02-13T16:19:20;6.20;99.90
5930;DHT22;2990;48.746;9.236;2023-02-13T16:21:48;6.10;1.00
5930;DHT22;2990;48.746;9.236;2023-02-13T16:24:14;5.90;1.00
5930;DHT22;2990;48.746;9.236;2023-02-13T16:26:41;5.80;1.00
5930;DHT22;2990;48.746;9.236;2023-02-13T16:29:09;5.70;1.00
5930;DHT22;2990;48.746;9.236;2023-02-13T16:31:38;5.80;1.00
5930;DHT22;2990;48.746;9.236;2023-02-13T16:36:49;5.50;1.00
5930;DHT22;2990;48.746;9.236;2023-02-13T16:39:30;5.40;1.00
5930;DHT22;2990;48.746;9.236;2023-02-13T16:41:57;5.30;1.00
5930;DHT22;2990;48.746;9.236;2023-02-13T16:44:26;5.20;1.00
5930;DHT22;2990;48.746;9.236;2023-02-13T16:46:57;5.20;10.70
5930;DHT22;2990;48.746;9.236;2023-02-13T16:49:25;5.10;99.90
5930;DHT22;2990;48.746;9.236;2023-02-13T16:54:53;5.00;99.90
5930;DHT22;2990;48.746;9.236;2023-02-13T16:57:28;4.80;1.00
5930;DHT22;2990;48.746;9.236;2023-02-13T17:00:17;4.70;1.00
5930;DHT22;2990;48.746;9.236;2023-02-13T17:02:47;4.60;1.00
5930;DHT22;2990;48.746;9.236;2023-02-13T17:05:17;4.50;99.90
5930;DHT22;2990;48.746;9.236;2023-02-13T17:07:52;4.30;1.00
5930;DHT22;2990;48.746;9.236;2023-02-13T17:10:38;4.30;1.00
5930;DHT22;2990;48.746;9.236;2023-02-13T17:15:40;4.10;9.10
5930;DHT22;2990;48.746;9.236;2023-02-13T17:18:06;4.20;99.90
5930;DHT22;2990;48.746;9.236;2023-02-13T17:20:35;4.20;99.90
5930;DHT22;2990;48.746;9.236;2023-02-13T17:23:03;3.90;1.00
5930;DHT22;2990;48.746;9.236;2023-02-13T17:25:35;3.80;99.90
5930;DHT22;2990;48.746;9.236;2023-02-13T17:28:19;3.70;62.40
5930;DHT22;2990;48.746;9.236;2023-02-13T17:30:46;3.70;1.00
5930;DHT22;2990;48.746;9.236;2023-02-13T17:33:21;3.50;1.00
5930;DHT22;2990;48.746;9.236;2023-02-13T17:35:47;3.50;1.00
5930;DHT22;2990;48.746;9.236;2023-02-13T17:38:13;3.50;1.00
5930;DHT22;2990;48.746;9.236;2023-02-13T17:40:43;3.40;20.30
5930;DHT22;2990;48.746;9.236;2023-02-13T17:43:13;3.40;1.00
5930;DHT22;2990;48.746;9.236;2023-02-13T17:45:40;3.20;1.00
5930;DHT22;2990;48.746;9.236;2023-02-13T17:48:06;3.10;1.00
5930;DHT22;2990;48.746;9.236;2023-02-13T17:50:33;3.00;1.00
5930;DHT22;2990;48.746;9.236;2023-02-13T17:53:04;2.90;1.00
5930;DHT22;2990;48.746;9.236;2023-02-13T17:55:31;2.90;99.90
5930;DHT22;2990;48.746;9.236;2023-02-13T17:57:58;2.80;99.90
5930;DHT22;2990;48.746;9.236;2023-02-13T18:00:28;2.80;99.90
5930;DHT22;2990;48.746;9.236;2023-02-13T18:02:54;2.70;1.00
5930;DHT22;2990;48.746;9.236;2023-02-13T18:05:21;2.70;1.00
5930;DHT22;2990;48.746;9.236;2023-02-13T18:07:49;2.60;99.90
5930;DHT22;2990;48.746;9.236;2023-02-13T18:10:25;2.60;99.90
5930;DHT22;2990;48.746;9.236;2023-02-13T18:12:57;2.70;1.00
5930;DHT22;2990;48.746;9.236;2023-02-13T18:15:41;2.50;1.00
5930;DHT22;2990;48.746;9.236;2023-02-13T18:18:07;2.40;1.00
5930;DHT22;2990;48.746;9.236;2023-02-13T18:20:33;2.40;36.40
5930;DHT22;2990;48.746;9.236;2023-02-13T18:23:00;2.30;99.90
5930;DHT22;2990;48.746;9.236;2023-02-13T18:28:48;2.20;99.90
5930;DHT22;2990;48.746;9.236;2023-02-13T18:31:17;2.10;99.90
5930;DHT22;2990;48.746;9.236;2023-02-13T18:33:43;2.10;99.90
5930;DHT22;2990;48.746;9.236;2023-02-13T18:36:09;2.10;1.00
5930;DHT22;2990;48.746;9.236;2023-02-13T18:38:38;2.10;1.00
5930;DHT22;2990;48.746;9.236;2023-02-13T18:41:03;2.10;1.00
5930;DHT22;2990;48.746;9.236;2023-02-13T18:43:38;2.10;1.00
5930;DHT22;2990;48.746;9.236;2023-02-13T18:46:13;2.00;1.00
5930;DHT22;2990;48.746;9.236;2023-02-13T18:48:56;2.10;1.00
5930;DHT22;2990;48.746;9.236;2023-02-13T18:52:13;1.90;1.00
5930;DHT22;2990;48.746;9.236;2023-02-13T18:58:37;1.70;1.00
5930;DHT22;2990;48.746;9.236;2023-02-13T19:04:31;1.80;1.00
5930;DHT22;2990;48.746;9.236;2023-02-13T19:06:57;1.50;1.00
5930;DHT22;2990;48.746;9.236;2023-02-13T19:09:28;1.60;1.00
5930;DHT22;2990;48.746;9.236;2023-02-13T19:12:25;1.50;1.00
5930;DHT22;2990;48.746;9.236;2023-02-13T19:14:59;1.50;1.00